createdAt,value
2023-02-02T00:01:53.634Z,98973.03
2023-02-02T00:04:20.055Z,98968.31
2023-02-02T00:06:46.732Z,98966.59
2023-02-02T00:09:13.145Z,98964.41
2023-02-02T00:11:40.035Z,98985.34
2023-02-02T00:14:06.500Z,98972.03
2023-02-02T00:16:32.901Z,98974.69
2023-02-02T00:18:59.575Z,98946.06
2023-02-02T00:21:26.166Z,98937.09
2023-02-02T00:23:52.591Z,98910.09
2023-02-02T00:26:19.149Z,98908.16
2023-02-02T00:28:45.619Z,98894.84
2023-02-02T00:31:12.098Z,98893.84
2023-02-02T00:33:38.523Z,98911.34
2023-02-02T00:36:04.902Z,98881.56
2023-02-02T00:38:31.395Z,98879.78
2023-02-02T00:40:58.035Z,98883.19
2023-02-02T00:43:24.916Z,98875.19
2023-02-02T00:45:51.437Z,98871.75
2023-02-02T00:48:17.893Z,98882.72
2023-02-02T00:50:44.407Z,98887.44
2023-02-02T00:53:11.189Z,98875.16
2023-02-02T00:55:38.097Z,98872.06
2023-02-02T00:58:06.681Z,98887.41
2023-02-02T01:00:33.339Z,98896.13
2023-02-02T01:03:00.039Z,98898.75
2023-02-02T01:05:26.741Z,98916.34
2023-02-02T01:07:53.182Z,98904.72
2023-02-02T01:10:19.595Z,98925.97
2023-02-02T01:12:46.167Z,98924.47
2023-02-02T01:15:12.578Z,98915.41
2023-02-02T01:17:39.019Z,98907.28
2023-02-02T01:20:05.639Z,98907.19
2023-02-02T01:22:32.112Z,98924.19
2023-02-02T01:24:58.516Z,98930.31
2023-02-02T01:27:24.992Z,98919.38
2023-02-02T01:29:51.458Z,98925.59
2023-02-02T01:32:17.873Z,98910.31
2023-02-02T01:34:44.321Z,98905.00
2023-02-02T01:37:10.859Z,98887.38
2023-02-02T01:39:37.287Z,98870.41
2023-02-02T01:42:03.740Z,98897.00
2023-02-02T01:44:30.671Z,98884.59
2023-02-02T01:46:57.075Z,98881.97
2023-02-02T01:49:23.689Z,98890.06
2023-02-02T01:51:50.145Z,98886.47
2023-02-02T01:54:16.624Z,98895.78
2023-02-02T01:56:43.351Z,98887.84
2023-02-02T01:59:09.954Z,98890.69
2023-02-02T02:01:36.678Z,98893.63
2023-02-02T02:04:04.526Z,98900.38
2023-02-02T02:06:31.379Z,98901.03
2023-02-02T02:08:57.861Z,98903.88
2023-02-02T02:11:24.298Z,98905.91
2023-02-02T02:13:50.767Z,98914.94
2023-02-02T02:16:18.287Z,98912.16
2023-02-02T02:18:45.132Z,98912.28
2023-02-02T02:21:11.669Z,98906.19
2023-02-02T02:23:38.102Z,98912.97
2023-02-02T02:26:04.928Z,98915.69
2023-02-02T02:28:31.595Z,98922.63
2023-02-02T02:30:58.210Z,98910.91
2023-02-02T02:33:24.858Z,98920.16
2023-02-02T02:35:51.292Z,98912.53
2023-02-02T02:38:17.694Z,98915.53
2023-02-02T02:40:44.102Z,98910.94
2023-02-02T02:43:10.565Z,98921.63
2023-02-02T02:45:37.120Z,98902.28
2023-02-02T02:48:03.916Z,98903.50
2023-02-02T02:50:30.323Z,98911.25
2023-02-02T02:52:56.949Z,98900.59
2023-02-02T02:55:24.121Z,98900.69
2023-02-02T02:57:51.139Z,98895.44
2023-02-02T03:00:17.646Z,98898.06
2023-02-02T03:02:44.121Z,98903.41
2023-02-02T03:05:10.855Z,98897.00
2023-02-02T03:07:37.219Z,98900.75
2023-02-02T03:10:03.643Z,98895.56
2023-02-02T03:12:30.126Z,98894.91
2023-02-02T03:14:56.840Z,98899.38
2023-02-02T03:17:23.509Z,98899.38
2023-02-02T03:19:49.972Z,98908.47
2023-02-02T03:22:16.505Z,98898.00
2023-02-02T03:24:42.943Z,98901.38
2023-02-02T03:27:11.740Z,98903.09
2023-02-02T03:29:38.283Z,98891.47
2023-02-02T03:32:04.799Z,98897.69
2023-02-02T03:34:31.622Z,98892.47
2023-02-02T03:36:59.040Z,98890.38
2023-02-02T03:39:26.083Z,98894.41
2023-02-02T03:41:52.662Z,98906.16
2023-02-02T03:44:19.219Z,98899.50
2023-02-02T03:46:45.708Z,98884.88
2023-02-02T03:49:12.202Z,98882.19
2023-02-02T03:51:38.942Z,98888.47
2023-02-02T03:54:05.479Z,98880.47
2023-02-02T03:56:33.162Z,98883.06
2023-02-02T03:58:59.585Z,98876.81
2023-02-02T04:01:26.298Z,98873.53
2023-02-02T04:03:53.056Z,98889.28
2023-02-02T04:06:19.485Z,98870.16
2023-02-02T04:08:46.037Z,98876.41
2023-02-02T04:11:12.614Z,98876.66
2023-02-02T04:13:39.079Z,98885.44
2023-02-02T04:16:05.505Z,98896.88
2023-02-02T04:18:32.006Z,98888.13
2023-02-02T04:20:58.441Z,98898.97
2023-02-02T04:23:24.842Z,98896.94
2023-02-02T04:25:51.313Z,98892.94
2023-02-02T04:28:17.688Z,98891.91
2023-02-02T04:30:44.321Z,98897.09
2023-02-02T04:33:10.834Z,98905.44
2023-02-02T04:35:37.434Z,98899.38
2023-02-02T04:38:03.884Z,98899.47
2023-02-02T04:40:30.392Z,98909.41
2023-02-02T04:42:56.940Z,98904.88
2023-02-02T04:45:23.954Z,98897.31
2023-02-02T04:47:50.728Z,98910.25
2023-02-02T04:50:17.195Z,98904.38
2023-02-02T04:52:43.824Z,98915.34
2023-02-02T04:55:10.437Z,98913.75
2023-02-02T04:57:37.027Z,98906.59
2023-02-02T05:00:03.565Z,98921.69
2023-02-02T05:02:30.167Z,98911.84
2023-02-02T05:04:56.578Z,98914.00
2023-02-02T05:07:23.080Z,98905.72
2023-02-02T05:09:49.515Z,98908.59
2023-02-02T05:12:15.945Z,98920.88
2023-02-02T05:14:42.345Z,98916.03
2023-02-02T05:17:08.882Z,98910.84
2023-02-02T05:19:35.473Z,98915.44
2023-02-02T05:22:01.967Z,98921.38
2023-02-02T05:24:28.451Z,98920.38
2023-02-02T05:26:54.972Z,98921.31
2023-02-02T05:29:21.785Z,98913.44
2023-02-02T05:31:48.661Z,98915.81
2023-02-02T05:34:15.232Z,98910.53
2023-02-02T05:36:43.763Z,98918.47
2023-02-02T05:39:10.226Z,98912.41
2023-02-02T05:41:36.696Z,98914.91
2023-02-02T05:44:03.226Z,98915.66
2023-02-02T05:46:29.932Z,98917.91
2023-02-02T05:48:56.426Z,98935.03
2023-02-02T05:51:23.072Z,98931.22
2023-02-02T05:53:50.775Z,98934.66
2023-02-02T05:56:17.251Z,98937.53
2023-02-02T05:58:43.773Z,98934.28
2023-02-02T06:01:10.420Z,98929.09
2023-02-02T06:03:36.911Z,98944.00
2023-02-02T06:06:05.990Z,98948.53
2023-02-02T06:08:33.327Z,98952.19
2023-02-02T06:11:00.937Z,98971.72
2023-02-02T06:13:27.660Z,98971.00
2023-02-02T06:15:54.147Z,98963.25
2023-02-02T06:18:20.620Z,98969.47
2023-02-02T06:20:47.085Z,98972.66
2023-02-02T06:23:13.496Z,98971.09
2023-02-02T06:25:39.904Z,98977.13
2023-02-02T06:28:06.510Z,98977.06
2023-02-02T06:30:33.090Z,98979.97
2023-02-02T06:32:59.580Z,98992.03
2023-02-02T06:35:26.443Z,98998.09
2023-02-02T06:37:53.437Z,98989.97
2023-02-02T06:40:20.072Z,98994.47
2023-02-02T06:42:46.613Z,99013.69
2023-02-02T06:45:13.116Z,99005.94
2023-02-02T06:47:39.793Z,99009.75
2023-02-02T06:50:06.219Z,99016.38
2023-02-02T06:52:32.865Z,99028.63
2023-02-02T06:54:59.303Z,99031.53
2023-02-02T06:57:25.895Z,99041.22
2023-02-02T06:59:52.765Z,99032.19
2023-02-02T07:02:21.584Z,99039.34
2023-02-02T07:04:48.596Z,99051.00
2023-02-02T07:07:15.307Z,99048.56
2023-02-02T07:09:41.776Z,99049.94
2023-02-02T07:12:08.286Z,99059.69
2023-02-02T07:14:34.861Z,99051.69
2023-02-02T07:17:01.259Z,99052.69
2023-02-02T07:19:27.718Z,99063.75
2023-02-02T07:21:54.170Z,99056.34
2023-02-02T07:24:20.879Z,99056.81
2023-02-02T07:26:47.413Z,99063.03
2023-02-02T07:29:14.512Z,99057.50
2023-02-02T07:31:41.094Z,99065.47
2023-02-02T07:34:07.500Z,99069.53
2023-02-02T07:36:34.007Z,99065.31
2023-02-02T07:39:00.487Z,99062.66
2023-02-02T07:41:27.011Z,99056.75
2023-02-02T07:43:53.631Z,99057.41
2023-02-02T07:46:20.315Z,99058.03
2023-02-02T07:48:47.465Z,99057.84
2023-02-02T07:51:14.388Z,99054.72
2023-02-02T07:53:41.555Z,99073.38
2023-02-02T07:56:07.999Z,99062.69
2023-02-02T07:58:34.468Z,99069.84
2023-02-02T08:01:00.992Z,99063.75
2023-02-02T08:03:27.955Z,99072.69
2023-02-02T08:05:56.550Z,99079.41
2023-02-02T08:08:23.013Z,99078.22
2023-02-02T08:10:49.418Z,99076.63
2023-02-02T08:13:15.941Z,99077.50
2023-02-02T08:15:42.582Z,99066.53
2023-02-02T08:18:09.211Z,99059.50
2023-02-02T08:20:35.687Z,99071.41
2023-02-02T08:23:02.372Z,99057.44
2023-02-02T08:25:29.054Z,99078.75
2023-02-02T08:27:57.597Z,99060.69
2023-02-02T08:30:24.201Z,99078.13
2023-02-02T08:32:50.611Z,99071.50
2023-02-02T08:35:17.152Z,99076.88
2023-02-02T08:37:43.791Z,99078.13
2023-02-02T08:40:10.330Z,99087.91
2023-02-02T08:42:36.775Z,99084.72
2023-02-02T08:46:01.322Z,99095.94
2023-02-02T08:47:56.087Z,99105.69
2023-02-02T08:50:31.867Z,99094.59
2023-02-02T08:52:58.277Z,99096.84
2023-02-02T08:55:24.973Z,99099.75
2023-02-02T08:57:51.829Z,99101.84
2023-02-02T09:00:18.286Z,99133.47
2023-02-02T09:02:44.905Z,99113.78
2023-02-02T09:05:11.676Z,99122.00
2023-02-02T09:07:38.070Z,99125.16
2023-02-02T09:10:04.497Z,99112.81
2023-02-02T09:12:31.105Z,99124.06
2023-02-02T09:14:57.591Z,99119.75
2023-02-02T09:17:24.264Z,99123.81
2023-02-02T09:19:50.758Z,99120.88
2023-02-02T09:22:17.274Z,99142.47
2023-02-02T09:24:43.677Z,99138.25
2023-02-02T09:27:10.099Z,99129.28
2023-02-02T09:29:36.820Z,99127.75
2023-02-02T09:32:03.405Z,99130.16
2023-02-02T09:34:29.829Z,99142.03
2023-02-02T09:36:56.206Z,99139.00
2023-02-02T09:39:22.892Z,99139.53
2023-02-02T09:41:49.368Z,99146.34
2023-02-02T09:44:15.841Z,99126.81
2023-02-02T09:46:42.226Z,99141.50
2023-02-02T09:49:08.747Z,99148.75
2023-02-02T09:51:35.164Z,99144.25
2023-02-02T09:54:01.564Z,99146.00
2023-02-02T09:56:27.948Z,99139.19
2023-02-02T09:58:54.428Z,99132.84
2023-02-02T10:01:20.870Z,99134.75
2023-02-02T10:03:47.484Z,99134.13
2023-02-02T10:06:13.915Z,99137.16
2023-02-02T10:08:40.375Z,99142.03
2023-02-02T10:11:06.737Z,99128.28
2023-02-02T10:13:33.203Z,99140.41
2023-02-02T10:16:01.581Z,99141.97
2023-02-02T10:18:28.486Z,99152.22
2023-02-02T10:20:55.991Z,99147.81
2023-02-02T10:23:22.369Z,99171.47
2023-02-02T10:25:48.869Z,99149.69
2023-02-02T10:28:15.427Z,99154.94
2023-02-02T10:30:42.079Z,99159.06
2023-02-02T10:33:08.594Z,99162.88
2023-02-02T10:35:35.378Z,99150.44
2023-02-02T10:38:01.864Z,99155.16
2023-02-02T10:40:28.660Z,99146.59
2023-02-02T10:42:57.169Z,99150.84
2023-02-02T10:45:25.841Z,99159.00
2023-02-02T10:47:52.373Z,99158.59
2023-02-02T10:50:18.955Z,99163.44
2023-02-02T10:52:45.730Z,99151.94
2023-02-02T10:55:13.582Z,99152.25
2023-02-02T10:57:40.091Z,99164.94
2023-02-02T11:00:06.521Z,99154.84
2023-02-02T11:02:33.168Z,99162.41
2023-02-02T11:04:59.579Z,99161.72
2023-02-02T11:07:25.966Z,99157.19
2023-02-02T11:09:52.514Z,99168.63
2023-02-02T11:12:19.231Z,99159.81
2023-02-02T11:14:46.254Z,99154.16
2023-02-02T11:17:13.277Z,99166.16
2023-02-02T11:19:39.789Z,99161.25
2023-02-02T11:22:06.607Z,99161.34
2023-02-02T11:24:33.068Z,99164.22
2023-02-02T11:26:59.752Z,99163.25
2023-02-02T11:29:26.299Z,99162.78
2023-02-02T11:31:52.793Z,99164.81
2023-02-02T11:34:20.686Z,99159.47
2023-02-02T11:36:47.582Z,99162.72
2023-02-02T11:39:14.461Z,99164.06
2023-02-02T11:41:40.939Z,99159.81
2023-02-02T11:44:07.330Z,99163.06
2023-02-02T11:46:34.087Z,99154.59
2023-02-02T11:49:00.719Z,99153.41
2023-02-02T11:51:27.383Z,99144.75
2023-02-02T11:53:53.869Z,99142.47
2023-02-02T11:56:20.284Z,99156.47
2023-02-02T11:58:46.865Z,99154.34
2023-02-02T12:01:13.382Z,99161.06
2023-02-02T12:03:40.337Z,99145.31
2023-02-02T12:06:06.769Z,99154.63
2023-02-02T12:08:33.192Z,99140.03
2023-02-02T12:10:59.946Z,99148.78
2023-02-02T12:13:26.378Z,99140.66
2023-02-02T12:15:52.828Z,99143.84
2023-02-02T12:18:19.406Z,99140.13
2023-02-02T12:20:46.067Z,99126.94
2023-02-02T12:23:12.746Z,99135.13
2023-02-02T12:25:39.309Z,99137.91
2023-02-02T12:28:05.997Z,99141.94
2023-02-02T12:30:32.475Z,99134.81
2023-02-02T12:33:00.794Z,99142.81
2023-02-02T12:35:27.244Z,99137.16
2023-02-02T12:37:53.860Z,99125.38
2023-02-02T12:40:20.323Z,99113.38
2023-02-02T12:42:46.805Z,99120.22
2023-02-02T12:45:13.528Z,99112.34
2023-02-02T12:47:39.934Z,99117.56
2023-02-02T12:50:06.747Z,99112.16
2023-02-02T12:52:35.662Z,99110.44
2023-02-02T12:55:02.151Z,99118.59
2023-02-02T12:57:29.063Z,99125.94
2023-02-02T12:59:55.676Z,99133.72
2023-02-02T13:02:22.463Z,99112.69
2023-02-02T13:10:17.139Z,99118.81
2023-02-02T13:12:43.666Z,99114.75
2023-02-02T13:15:10.130Z,99113.28
2023-02-02T13:17:36.525Z,99129.69
2023-02-02T13:20:02.916Z,99124.56
2023-02-02T13:22:29.407Z,99113.25
2023-02-02T13:24:55.914Z,99124.34
2023-02-02T13:27:22.473Z,99111.50
2023-02-02T13:29:48.960Z,99132.16
2023-02-02T13:32:17.838Z,99127.38
2023-02-02T13:34:44.326Z,99125.16
2023-02-02T13:37:10.760Z,99126.44
2023-02-02T13:39:37.147Z,99116.00
2023-02-02T13:42:03.623Z,99128.38
2023-02-02T13:44:30.208Z,99133.63
2023-02-02T13:46:56.586Z,99133.28
2023-02-02T13:49:28.442Z,99128.22
2023-02-02T13:52:03.404Z,99148.44
2023-02-02T13:54:29.834Z,99139.00
2023-02-02T13:56:56.558Z,99135.19
2023-02-02T13:59:22.987Z,99141.75
2023-02-02T14:01:49.726Z,99151.34
2023-02-02T14:04:16.838Z,99149.41
2023-02-02T14:06:43.532Z,99149.66
2023-02-02T14:09:10.084Z,99150.75
2023-02-02T14:11:36.490Z,99157.19
2023-02-02T14:14:03.409Z,99152.88
2023-02-02T14:16:30.081Z,99152.03
2023-02-02T14:18:56.511Z,99166.84
2023-02-02T14:21:23.101Z,99170.06
2023-02-02T14:23:49.515Z,99163.47
2023-02-02T14:26:15.914Z,99168.41
2023-02-02T14:28:42.649Z,99177.81
2023-02-02T14:31:09.215Z,99175.41
2023-02-02T14:33:35.722Z,99170.78
2023-02-02T14:36:02.258Z,99186.47
2023-02-02T14:38:28.823Z,99185.00
2023-02-02T14:40:56.066Z,99200.38
2023-02-02T14:43:22.537Z,99197.69
2023-02-02T14:45:49.437Z,99197.16
2023-02-02T14:48:15.881Z,99203.31
2023-02-02T14:50:44.613Z,99206.16
2023-02-02T14:53:11.332Z,99209.19
2023-02-02T14:55:37.781Z,99213.31
2023-02-02T14:58:04.304Z,99225.75
2023-02-02T15:00:31.155Z,99214.31
2023-02-02T15:02:57.697Z,99217.56
2023-02-02T15:05:24.471Z,99211.53
2023-02-02T15:07:51.441Z,99225.38
2023-02-02T15:10:17.821Z,99240.09
2023-02-02T15:12:44.193Z,99229.94
2023-02-02T15:15:10.643Z,99229.44
2023-02-02T15:17:37.028Z,99238.75
2023-02-02T15:20:03.409Z,99234.41
2023-02-02T15:22:32.233Z,99237.75
2023-02-02T15:24:58.986Z,99245.28
2023-02-02T15:27:25.707Z,99242.47
2023-02-02T15:29:52.244Z,99253.59
2023-02-02T15:32:18.649Z,99245.81
2023-02-02T15:34:45.164Z,99242.72
2023-02-02T15:37:11.654Z,99239.88
2023-02-02T15:39:39.015Z,99257.91
2023-02-02T15:42:05.376Z,99248.56
2023-02-02T15:44:31.917Z,99258.50
2023-02-02T15:46:58.387Z,99257.63
2023-02-02T15:49:33.869Z,99261.78
2023-02-02T15:52:00.733Z,99259.56
2023-02-02T15:54:27.109Z,99274.56
2023-02-02T15:56:53.461Z,99275.25
2023-02-02T15:59:20.029Z,99282.84
2023-02-02T16:01:46.639Z,99281.13
2023-02-02T16:04:14.504Z,99292.16
2023-02-02T16:06:40.928Z,99292.28
2023-02-02T16:09:07.480Z,99300.16
2023-02-02T16:11:33.854Z,99303.59
2023-02-02T16:14:00.242Z,99305.09
2023-02-02T16:16:26.974Z,99300.81
2023-02-02T16:18:53.798Z,99320.41
2023-02-02T16:21:20.154Z,99324.91
2023-02-02T16:23:46.496Z,99340.19
2023-02-02T16:26:12.951Z,99330.31
2023-02-02T16:28:39.319Z,99332.38
2023-02-02T16:31:05.813Z,99345.59
2023-02-02T16:33:32.269Z,99355.59
2023-02-02T16:35:58.830Z,99349.88
2023-02-02T16:38:28.407Z,99353.53
2023-02-02T16:40:55.337Z,99347.97
2023-02-02T16:43:21.782Z,99353.72
2023-02-02T16:45:48.171Z,99360.41
2023-02-02T16:48:14.993Z,99360.00
2023-02-02T16:50:41.701Z,99362.03
2023-02-02T16:53:08.139Z,99357.84
2023-02-02T16:55:49.366Z,99365.31
2023-02-02T16:58:17.239Z,99375.66
2023-02-02T17:00:43.748Z,99391.34
2023-02-02T17:03:10.323Z,99386.88
2023-02-02T17:05:37.364Z,99387.44
2023-02-02T17:08:03.743Z,99397.75
2023-02-02T17:10:30.266Z,99393.28
2023-02-02T17:12:56.653Z,99401.78
2023-02-02T17:15:26.126Z,99402.09
2023-02-02T17:17:52.941Z,99401.88
2023-02-02T17:20:19.346Z,99416.16
2023-02-02T17:22:45.829Z,99413.53
2023-02-02T17:25:12.366Z,99419.22
2023-02-02T17:27:38.877Z,99407.16
2023-02-02T17:30:05.293Z,99421.03
2023-02-02T17:32:32.171Z,99428.88
2023-02-02T17:34:58.567Z,99434.03
2023-02-02T17:37:24.992Z,99426.91
2023-02-02T17:39:51.455Z,99441.41
2023-02-02T17:42:17.819Z,99448.59
2023-02-02T17:44:44.420Z,99447.72
2023-02-02T17:47:10.963Z,99467.63
2023-02-02T17:49:37.400Z,99467.13
2023-02-02T17:52:03.871Z,99478.00
2023-02-02T17:54:30.269Z,99470.66
2023-02-02T17:56:56.638Z,99476.00
2023-02-02T17:59:23.472Z,99487.25
2023-02-02T18:01:50.048Z,99497.56
2023-02-02T18:04:16.941Z,99491.88
2023-02-02T18:06:43.499Z,99482.59
2023-02-02T18:09:09.953Z,99489.56
2023-02-02T18:11:36.485Z,99485.16
2023-02-02T18:14:03.076Z,99490.66
2023-02-02T18:16:30.616Z,99493.28
2023-02-02T18:18:58.750Z,99496.56
2023-02-02T18:21:25.294Z,99498.22
2023-02-02T18:23:51.670Z,99488.59
2023-02-02T18:26:18.819Z,99493.47
2023-02-02T18:28:45.527Z,99503.22
2023-02-02T18:31:12.891Z,99501.28
2023-02-02T18:33:39.654Z,99505.69
2023-02-02T18:36:06.096Z,99524.47
2023-02-02T18:38:32.529Z,99516.38
2023-02-02T18:40:59.500Z,99525.28
2023-02-02T18:43:26.011Z,99535.06
2023-02-02T18:45:52.461Z,99524.13
2023-02-02T18:48:18.849Z,99532.13
2023-02-02T18:50:45.505Z,99520.31
2023-02-02T18:53:12.483Z,99542.00
2023-02-02T18:55:38.831Z,99540.94
2023-02-02T18:58:09.740Z,99534.66
2023-02-02T19:00:36.193Z,99541.84
2023-02-02T19:03:02.681Z,99555.63
2023-02-02T19:05:29.095Z,99560.94
2023-02-02T19:07:55.957Z,99570.31
2023-02-02T19:10:22.388Z,99563.25
2023-02-02T19:12:48.827Z,99568.47
2023-02-02T19:15:15.560Z,99564.16
2023-02-02T19:17:42.248Z,99570.22
2023-02-02T19:20:08.647Z,99566.75
2023-02-02T19:22:35.076Z,99584.69
2023-02-02T19:25:01.548Z,99586.06
2023-02-02T19:27:28.052Z,99578.63
2023-02-02T19:29:54.501Z,99588.34
2023-02-02T19:32:21.157Z,99578.22
2023-02-02T19:34:47.653Z,99597.31
2023-02-02T19:37:14.351Z,99592.72
2023-02-02T19:39:40.917Z,99601.75
2023-02-02T19:42:07.949Z,99596.28
2023-02-02T19:44:34.375Z,99605.09
2023-02-02T19:47:00.896Z,99612.03
2023-02-02T19:49:27.499Z,99621.97
2023-02-02T19:51:53.911Z,99621.53
2023-02-02T19:54:20.381Z,99630.94
2023-02-02T19:56:49.214Z,99628.50
2023-02-02T19:59:16.809Z,99637.91
2023-02-02T20:01:46.221Z,99638.94
2023-02-02T20:04:15.328Z,99644.44
2023-02-02T20:06:56.670Z,99645.97
2023-02-02T20:09:26.110Z,99643.28
2023-02-02T20:11:53.555Z,99648.88
2023-02-02T20:14:19.989Z,99651.75
2023-02-02T20:16:46.481Z,99649.53
2023-02-02T20:19:12.906Z,99654.47
2023-02-02T20:21:39.375Z,99649.59
2023-02-02T20:24:05.856Z,99663.28
2023-02-02T20:26:32.849Z,99676.47
2023-02-02T20:28:59.260Z,99675.44
2023-02-02T20:31:29.396Z,99670.41
2023-02-02T20:33:55.817Z,99686.56
2023-02-02T20:36:22.315Z,99680.63
2023-02-02T20:38:48.817Z,99681.34
2023-02-02T20:41:15.297Z,99672.34
2023-02-02T20:43:42.090Z,99684.78
2023-02-02T20:46:08.612Z,99688.91
2023-02-02T20:48:35.179Z,99681.47
2023-02-02T20:51:01.728Z,99687.66
2023-02-02T20:53:28.186Z,99694.66
2023-02-02T20:55:54.682Z,99708.19
2023-02-02T20:58:21.097Z,99712.34
2023-02-02T21:00:47.651Z,99720.22
2023-02-02T21:03:14.198Z,99714.03
2023-02-02T21:05:41.061Z,99712.94
2023-02-02T21:08:07.917Z,99721.72
2023-02-02T21:10:34.401Z,99717.47
2023-02-02T21:13:00.790Z,99714.16
2023-02-02T21:15:27.491Z,99724.53
2023-02-02T21:17:53.959Z,99722.50
2023-02-02T21:20:20.619Z,99727.81
2023-02-02T21:22:48.063Z,99725.25
2023-02-02T21:25:14.591Z,99728.00
2023-02-02T21:27:41.110Z,99736.41
2023-02-02T21:30:07.740Z,99741.78
2023-02-02T21:32:34.091Z,99745.13
2023-02-02T21:35:03.608Z,99746.19
2023-02-02T21:37:30.035Z,99753.72
2023-02-02T21:39:56.465Z,99757.81
2023-02-02T21:42:22.829Z,99756.88
2023-02-02T21:44:49.851Z,99771.47
2023-02-02T21:47:16.580Z,99771.84
2023-02-02T21:49:43.053Z,99769.53
2023-02-02T21:52:09.577Z,99774.91
2023-02-02T21:54:35.975Z,99783.44
2023-02-02T21:57:02.502Z,99781.06
2023-02-02T21:59:29.071Z,99786.16
2023-02-02T22:01:56.609Z,99803.53
2023-02-02T22:04:25.403Z,99797.31
2023-02-02T22:06:54.427Z,99802.03
2023-02-02T22:09:21.889Z,99797.06
2023-02-02T22:11:51.999Z,99802.34
2023-02-02T22:14:20.276Z,99808.91
2023-02-02T22:16:47.448Z,99811.19
2023-02-02T22:19:13.901Z,99807.53
2023-02-02T22:21:40.424Z,99811.03
2023-02-02T22:24:06.980Z,99805.22
2023-02-02T22:26:34.446Z,99814.72
2023-02-02T22:29:01.060Z,99814.00
2023-02-02T22:31:29.503Z,99812.03
2023-02-02T22:33:58.189Z,99812.03
2023-02-02T22:36:25.280Z,99813.84
2023-02-02T22:38:51.783Z,99817.03
2023-02-02T22:41:18.745Z,99827.28
2023-02-02T22:43:45.379Z,99819.03
2023-02-02T22:46:12.039Z,99824.19
2023-02-02T22:48:38.506Z,99830.97
2023-02-02T22:51:05.101Z,99829.31
2023-02-02T22:53:31.680Z,99839.81
2023-02-02T22:55:58.144Z,99834.88
2023-02-02T22:58:25.486Z,99834.81
2023-02-02T23:00:52.033Z,99848.88
2023-02-02T23:03:18.439Z,99845.19
2023-02-02T23:05:44.837Z,99841.69
2023-02-02T23:08:11.392Z,99844.88
2023-02-02T23:10:38.176Z,99852.94
2023-02-02T23:13:04.814Z,99845.81
2023-02-02T23:15:31.521Z,99857.88
2023-02-02T23:17:58.000Z,99851.78
2023-02-02T23:20:25.561Z,99854.91
2023-02-02T23:22:52.148Z,99847.00
2023-02-02T23:25:19.301Z,99856.63
2023-02-02T23:27:46.033Z,99860.47
2023-02-02T23:30:12.824Z,99874.91
2023-02-02T23:32:39.288Z,99856.75
2023-02-02T23:35:05.816Z,99870.59
2023-02-02T23:37:32.306Z,99862.63
2023-02-02T23:39:58.824Z,99854.78
2023-02-02T23:42:25.204Z,99855.88
2023-02-02T23:44:52.113Z,99861.03
2023-02-02T23:47:18.606Z,99855.81
2023-02-02T23:49:45.331Z,99859.16
2023-02-02T23:52:11.961Z,99868.69
2023-02-02T23:54:39.609Z,99863.41
2023-02-02T23:57:08.694Z,99859.81
2023-02-02T23:59:35.637Z,99869.00
